sensor_id;sensor_type;location;lat;lon;timestamp;P1;durP1;ratioP1;P2;durP2;ratioP2
79759;SDS011;70512;42.122;24.732;2024-01-15T00:01:23;79.90;;;33.38;;
79759;SDS011;70512;42.122;24.732;2024-01-15T00:03:50;99.85;;;37.80;;
79759;SDS011;70512;42.122;24.732;2024-01-15T00:06:18;97.15;;;36.08;;
79759;SDS011;70512;42.122;24.732;2024-01-15T00:08:46;101.30;;;34.25;;
79759;SDS011;70512;42.122;24.732;2024-01-15T00:11:14;79.62;;;34.43;;
79759;SDS011;70512;42.122;24.732;2024-01-15T00:13:41;80.72;;;36.03;;
79759;SDS011;70512;42.122;24.732;2024-01-15T00:16:09;80.62;;;34.27;;
79759;SDS011;70512;42.122;24.732;2024-01-15T00:18:38;96.08;;;38.10;;
79759;SDS011;70512;42.122;24.732;2024-01-15T00:21:06;97.72;;;35.52;;
79759;SDS011;70512;42.122;24.732;2024-01-15T00:23:33;93.33;;;35.83;;
79759;SDS011;70512;42.122;24.732;2024-01-15T00:26:01;92.22;;;38.20;;
79759;SDS011;70512;42.122;24.732;2024-01-15T00:28:29;74.92;;;34.80;;
79759;SDS011;70512;42.122;24.732;2024-01-15T00:30:56;75.70;;;32.28;;
79759;SDS011;70512;42.122;24.732;2024-01-15T00:33:24;75.72;;;33.83;;
79759;SDS011;70512;42.122;24.732;2024-01-15T00:35:52;78.97;;;34.85;;
79759;SDS011;70512;42.122;24.732;2024-01-15T00:38:19;78.37;;;33.35;;
79759;SDS011;70512;42.122;24.732;2024-01-15T00:40:47;79.77;;;34.43;;
79759;SDS011;70512;42.122;24.732;2024-01-15T00:43:15;76.10;;;33.90;;
79759;SDS011;70512;42.122;24.732;2024-01-15T00:45:44;78.28;;;33.25;;
79759;SDS011;70512;42.122;24.732;2024-01-15T00:48:12;72.30;;;33.95;;
79759;SDS011;70512;42.122;24.732;2024-01-15T00:50:40;86.87;;;34.58;;
79759;SDS011;70512;42.122;24.732;2024-01-15T00:53:07;84.20;;;36.55;;
79759;SDS011;70512;42.122;24.732;2024-01-15T00:55:35;81.10;;;34.63;;
79759;SDS011;70512;42.122;24.732;2024-01-15T00:58:03;79.10;;;35.20;;
79759;SDS011;70512;42.122;24.732;2024-01-15T01:00:31;74.27;;;34.63;;
79759;SDS011;70512;42.122;24.732;2024-01-15T01:02:58;82.22;;;36.75;;
79759;SDS011;70512;42.122;24.732;2024-01-15T01:05:26;71.45;;;34.27;;
79759;SDS011;70512;42.122;24.732;2024-01-15T01:07:54;75.57;;;34.58;;
79759;SDS011;70512;42.122;24.732;2024-01-15T01:10:21;76.70;;;34.43;;
79759;SDS011;70512;42.122;24.732;2024-01-15T01:12:49;77.47;;;35.85;;
79759;SDS011;70512;42.122;24.732;2024-01-15T01:15:17;76.22;;;35.13;;
79759;SDS011;70512;42.122;24.732;2024-01-15T01:17:44;80.53;;;33.78;;
79759;SDS011;70512;42.122;24.732;2024-01-15T01:20:12;124.05;;;39.03;;
79759;SDS011;70512;42.122;24.732;2024-01-15T01:22:41;112.05;;;38.20;;
79759;SDS011;70512;42.122;24.732;2024-01-15T01:25:08;110.00;;;40.92;;
79759;SDS011;70512;42.122;24.732;2024-01-15T01:27:36;127.22;;;41.02;;
79759;SDS011;70512;42.122;24.732;2024-01-15T01:30:04;111.15;;;33.78;;
79759;SDS011;70512;42.122;24.732;2024-01-15T01:32:32;82.62;;;32.13;;
79759;SDS011;70512;42.122;24.732;2024-01-15T01:35:00;76.55;;;32.67;;
79759;SDS011;70512;42.122;24.732;2024-01-15T01:37:28;107.25;;;40.50;;
79759;SDS011;70512;42.122;24.732;2024-01-15T01:39:55;105.35;;;39.98;;
79759;SDS011;70512;42.122;24.732;2024-01-15T01:42:23;93.47;;;37.67;;
79759;SDS011;70512;42.122;24.732;2024-01-15T01:44:51;80.20;;;34.63;;
79759;SDS011;70512;42.122;24.732;2024-01-15T01:47:18;76.67;;;31.87;;
79759;SDS011;70512;42.122;24.732;2024-01-15T01:49:46;71.67;;;32.05;;
79759;SDS011;70512;42.122;24.732;2024-01-15T01:52:14;80.90;;;32.40;;
79759;SDS011;70512;42.122;24.732;2024-01-15T01:54:41;71.65;;;32.23;;
79759;SDS011;70512;42.122;24.732;2024-01-15T01:57:09;69.92;;;31.57;;
79759;SDS011;70512;42.122;24.732;2024-01-15T01:59:38;71.15;;;33.18;;
79759;SDS011;70512;42.122;24.732;2024-01-15T02:02:07;75.92;;;32.95;;
79759;SDS011;70512;42.122;24.732;2024-01-15T02:04:34;75.90;;;32.95;;
79759;SDS011;70512;42.122;24.732;2024-01-15T02:07:02;76.25;;;32.33;;
79759;SDS011;70512;42.122;24.732;2024-01-15T02:09:30;81.32;;;33.67;;
79759;SDS011;70512;42.122;24.732;2024-01-15T02:11:58;75.87;;;34.30;;
79759;SDS011;70512;42.122;24.732;2024-01-15T02:14:26;69.25;;;30.43;;
79759;SDS011;70512;42.122;24.732;2024-01-15T02:16:53;77.15;;;33.58;;
79759;SDS011;70512;42.122;24.732;2024-01-15T02:19:21;69.80;;;33.38;;
79759;SDS011;70512;42.122;24.732;2024-01-15T02:21:49;69.60;;;31.45;;
79759;SDS011;70512;42.122;24.732;2024-01-15T02:24:16;75.32;;;32.58;;
79759;SDS011;70512;42.122;24.732;2024-01-15T02:26:44;80.30;;;32.85;;
79759;SDS011;70512;42.122;24.732;2024-01-15T02:29:12;67.87;;;32.98;;
79759;SDS011;70512;42.122;24.732;2024-01-15T02:31:41;74.95;;;32.80;;
79759;SDS011;70512;42.122;24.732;2024-01-15T02:34:09;78.02;;;32.50;;
79759;SDS011;70512;42.122;24.732;2024-01-15T02:36:37;70.45;;;31.62;;
79759;SDS011;70512;42.122;24.732;2024-01-15T02:39:04;76.47;;;34.48;;
79759;SDS011;70512;42.122;24.732;2024-01-15T02:41:32;67.42;;;32.55;;
79759;SDS011;70512;42.122;24.732;2024-01-15T02:44:00;80.12;;;35.88;;
79759;SDS011;70512;42.122;24.732;2024-01-15T02:46:27;77.72;;;34.15;;
79759;SDS011;70512;42.122;24.732;2024-01-15T02:48:55;83.10;;;33.78;;
79759;SDS011;70512;42.122;24.732;2024-01-15T02:51:22;71.80;;;31.52;;
79759;SDS011;70512;42.122;24.732;2024-01-15T02:53:51;67.05;;;32.20;;
79759;SDS011;70512;42.122;24.732;2024-01-15T02:56:19;65.32;;;30.48;;
79759;SDS011;70512;42.122;24.732;2024-01-15T02:58:47;69.62;;;30.68;;
79759;SDS011;70512;42.122;24.732;2024-01-15T03:01:14;65.85;;;30.92;;
79759;SDS011;70512;42.122;24.732;2024-01-15T03:03:43;89.47;;;31.37;;
79759;SDS011;70512;42.122;24.732;2024-01-15T03:06:11;73.10;;;32.75;;
79759;SDS011;70512;42.122;24.732;2024-01-15T03:08:39;73.00;;;31.23;;
79759;SDS011;70512;42.122;24.732;2024-01-15T03:11:06;70.92;;;32.13;;
79759;SDS011;70512;42.122;24.732;2024-01-15T03:13:35;67.32;;;31.45;;
79759;SDS011;70512;42.122;24.732;2024-01-15T03:16:04;76.30;;;33.67;;
79759;SDS011;70512;42.122;24.732;2024-01-15T03:18:32;82.80;;;34.40;;
79759;SDS011;70512;42.122;24.732;2024-01-15T03:21:00;76.40;;;33.92;;
79759;SDS011;70512;42.122;24.732;2024-01-15T03:23:27;72.92;;;33.25;;
79759;SDS011;70512;42.122;24.732;2024-01-15T03:25:55;77.78;;;36.15;;
79759;SDS011;70512;42.122;24.732;2024-01-15T03:28:23;83.27;;;34.67;;
79759;SDS011;70512;42.122;24.732;2024-01-15T03:30:50;79.97;;;34.00;;
79759;SDS011;70512;42.122;24.732;2024-01-15T03:33:18;77.58;;;33.78;;
79759;SDS011;70512;42.122;24.732;2024-01-15T03:35:46;84.37;;;35.40;;
79759;SDS011;70512;42.122;24.732;2024-01-15T03:38:13;78.95;;;34.75;;
79759;SDS011;70512;42.122;24.732;2024-01-15T03:40:41;65.87;;;32.40;;
79759;SDS011;70512;42.122;24.732;2024-01-15T03:43:09;67.22;;;31.48;;
79759;SDS011;70512;42.122;24.732;2024-01-15T03:45:36;70.90;;;31.50;;
79759;SDS011;70512;42.122;24.732;2024-01-15T03:48:04;78.12;;;33.67;;
79759;SDS011;70512;42.122;24.732;2024-01-15T03:50:32;74.70;;;32.45;;
79759;SDS011;70512;42.122;24.732;2024-01-15T03:53:00;76.92;;;33.20;;
79759;SDS011;70512;42.122;24.732;2024-01-15T03:55:27;80.95;;;33.48;;
79759;SDS011;70512;42.122;24.732;2024-01-15T03:58:07;77.22;;;32.83;;
79759;SDS011;70512;42.122;24.732;2024-01-15T04:00:34;73.65;;;32.10;;
79759;SDS011;70512;42.122;24.732;2024-01-15T04:03:02;71.25;;;32.40;;
79759;SDS011;70512;42.122;24.732;2024-01-15T04:05:30;75.92;;;32.95;;
79759;SDS011;70512;42.122;24.732;2024-01-15T04:07:57;79.40;;;32.42;;
79759;SDS011;70512;42.122;24.732;2024-01-15T04:10:25;75.67;;;37.08;;
79759;SDS011;70512;42.122;24.732;2024-01-15T04:12:53;83.40;;;34.75;;
79759;SDS011;70512;42.122;24.732;2024-01-15T04:15:20;78.72;;;33.02;;
79759;SDS011;70512;42.122;24.732;2024-01-15T04:17:48;78.78;;;34.40;;
79759;SDS011;70512;42.122;24.732;2024-01-15T04:20:16;67.42;;;33.00;;
79759;SDS011;70512;42.122;24.732;2024-01-15T04:22:43;78.85;;;34.38;;
79759;SDS011;70512;42.122;24.732;2024-01-15T04:25:11;78.92;;;33.05;;
79759;SDS011;70512;42.122;24.732;2024-01-15T04:27:39;78.57;;;34.30;;
79759;SDS011;70512;42.122;24.732;2024-01-15T04:30:06;72.47;;;33.30;;
79759;SDS011;70512;42.122;24.732;2024-01-15T04:32:34;73.83;;;32.50;;
79759;SDS011;70512;42.122;24.732;2024-01-15T04:35:02;66.77;;;32.28;;
79759;SDS011;70512;42.122;24.732;2024-01-15T04:37:30;73.52;;;31.05;;
79759;SDS011;70512;42.122;24.732;2024-01-15T04:39:58;76.07;;;34.00;;
79759;SDS011;70512;42.122;24.732;2024-01-15T04:42:25;90.15;;;32.85;;
79759;SDS011;70512;42.122;24.732;2024-01-15T04:44:53;70.50;;;31.75;;
79759;SDS011;70512;42.122;24.732;2024-01-15T04:47:21;77.15;;;33.73;;
79759;SDS011;70512;42.122;24.732;2024-01-15T04:49:48;86.72;;;33.25;;
79759;SDS011;70512;42.122;24.732;2024-01-15T04:52:17;77.80;;;33.98;;
79759;SDS011;70512;42.122;24.732;2024-01-15T04:54:44;70.22;;;31.33;;
79759;SDS011;70512;42.122;24.732;2024-01-15T04:57:12;75.67;;;32.70;;
79759;SDS011;70512;42.122;24.732;2024-01-15T04:59:40;82.62;;;32.60;;
79759;SDS011;70512;42.122;24.732;2024-01-15T05:02:08;68.42;;;31.37;;
79759;SDS011;70512;42.122;24.732;2024-01-15T05:04:36;79.53;;;34.75;;
79759;SDS011;70512;42.122;24.732;2024-01-15T05:07:04;79.42;;;32.67;;
79759;SDS011;70512;42.122;24.732;2024-01-15T05:09:35;86.50;;;35.43;;
79759;SDS011;70512;42.122;24.732;2024-01-15T05:12:06;79.07;;;34.88;;
79759;SDS011;70512;42.122;24.732;2024-01-15T05:14:33;81.05;;;35.23;;
79759;SDS011;70512;42.122;24.732;2024-01-15T05:17:09;90.97;;;39.58;;
79759;SDS011;70512;42.122;24.732;2024-01-15T05:19:38;82.65;;;37.83;;
79759;SDS011;70512;42.122;24.732;2024-01-15T05:22:14;86.55;;;37.08;;
79759;SDS011;70512;42.122;24.732;2024-01-15T05:24:49;85.40;;;39.83;;
79759;SDS011;70512;42.122;24.732;2024-01-15T05:27:19;82.05;;;35.55;;
79759;SDS011;70512;42.122;24.732;2024-01-15T05:29:48;76.67;;;34.50;;
79759;SDS011;70512;42.122;24.732;2024-01-15T05:32:19;86.43;;;37.43;;
79759;SDS011;70512;42.122;24.732;2024-01-15T05:34:46;122.22;;;51.75;;
79759;SDS011;70512;42.122;24.732;2024-01-15T05:37:14;98.30;;;40.40;;
79759;SDS011;70512;42.122;24.732;2024-01-15T05:39:43;91.92;;;38.63;;
79759;SDS011;70512;42.122;24.732;2024-01-15T05:42:14;84.30;;;38.45;;
79759;SDS011;70512;42.122;24.732;2024-01-15T05:44:43;84.55;;;37.03;;
79759;SDS011;70512;42.122;24.732;2024-01-15T05:47:13;77.30;;;34.05;;
79759;SDS011;70512;42.122;24.732;2024-01-15T05:49:41;75.20;;;35.25;;
79759;SDS011;70512;42.122;24.732;2024-01-15T05:52:11;77.67;;;34.67;;
79759;SDS011;70512;42.122;24.732;2024-01-15T05:54:39;86.37;;;37.58;;
79759;SDS011;70512;42.122;24.732;2024-01-15T05:57:06;84.87;;;40.33;;
79759;SDS011;70512;42.122;24.732;2024-01-15T05:59:34;82.62;;;38.70;;
79759;SDS011;70512;42.122;24.732;2024-01-15T06:02:02;88.33;;;39.60;;
79759;SDS011;70512;42.122;24.732;2024-01-15T06:04:29;109.72;;;48.87;;
79759;SDS011;70512;42.122;24.732;2024-01-15T06:06:57;102.50;;;49.23;;
79759;SDS011;70512;42.122;24.732;2024-01-15T06:09:25;103.30;;;47.80;;
79759;SDS011;70512;42.122;24.732;2024-01-15T06:11:53;107.12;;;46.00;;
79759;SDS011;70512;42.122;24.732;2024-01-15T06:14:21;90.87;;;42.65;;
79759;SDS011;70512;42.122;24.732;2024-01-15T06:16:49;93.75;;;42.20;;
79759;SDS011;70512;42.122;24.732;2024-01-15T06:19:17;90.57;;;44.67;;
79759;SDS011;70512;42.122;24.732;2024-01-15T06:21:44;99.25;;;45.50;;
79759;SDS011;70512;42.122;24.732;2024-01-15T06:24:12;85.00;;;39.40;;
79759;SDS011;70512;42.122;24.732;2024-01-15T06:26:40;79.27;;;33.95;;
79759;SDS011;70512;42.122;24.732;2024-01-15T06:29:08;65.75;;;31.15;;
79759;SDS011;70512;42.122;24.732;2024-01-15T06:31:36;70.87;;;31.12;;
79759;SDS011;70512;42.122;24.732;2024-01-15T06:34:04;69.13;;;30.53;;
79759;SDS011;70512;42.122;24.732;2024-01-15T06:36:31;88.78;;;42.70;;
79759;SDS011;70512;42.122;24.732;2024-01-15T06:38:59;81.92;;;34.00;;
79759;SDS011;70512;42.122;24.732;2024-01-15T06:41:27;73.62;;;36.20;;
79759;SDS011;70512;42.122;24.732;2024-01-15T06:43:54;70.12;;;34.48;;
79759;SDS011;70512;42.122;24.732;2024-01-15T06:46:22;81.32;;;36.33;;
79759;SDS011;70512;42.122;24.732;2024-01-15T06:48:50;81.72;;;37.38;;
79759;SDS011;70512;42.122;24.732;2024-01-15T06:51:17;73.52;;;34.10;;
79759;SDS011;70512;42.122;24.732;2024-01-15T06:53:45;73.83;;;33.35;;
79759;SDS011;70512;42.122;24.732;2024-01-15T06:56:13;84.83;;;34.20;;
79759;SDS011;70512;42.122;24.732;2024-01-15T06:58:40;76.22;;;32.33;;
79759;SDS011;70512;42.122;24.732;2024-01-15T07:01:08;80.77;;;34.88;;
79759;SDS011;70512;42.122;24.732;2024-01-15T07:03:36;69.03;;;34.38;;
79759;SDS011;70512;42.122;24.732;2024-01-15T07:06:04;58.68;;;26.75;;
79759;SDS011;70512;42.122;24.732;2024-01-15T07:08:32;55.83;;;27.77;;
79759;SDS011;70512;42.122;24.732;2024-01-15T07:11:03;79.50;;;29.30;;
79759;SDS011;70512;42.122;24.732;2024-01-15T07:13:32;65.70;;;30.02;;
79759;SDS011;70512;42.122;24.732;2024-01-15T07:15:59;59.18;;;30.72;;
79759;SDS011;70512;42.122;24.732;2024-01-15T07:18:30;72.70;;;31.87;;
79759;SDS011;70512;42.122;24.732;2024-01-15T07:20:58;103.80;;;54.53;;
79759;SDS011;70512;42.122;24.732;2024-01-15T07:23:27;107.87;;;43.25;;
79759;SDS011;70512;42.122;24.732;2024-01-15T07:25:54;82.82;;;36.23;;
79759;SDS011;70512;42.122;24.732;2024-01-15T07:28:22;71.45;;;32.90;;
79759;SDS011;70512;42.122;24.732;2024-01-15T07:30:50;71.15;;;32.63;;
79759;SDS011;70512;42.122;24.732;2024-01-15T07:33:18;77.10;;;31.62;;
79759;SDS011;70512;42.122;24.732;2024-01-15T07:35:45;73.62;;;31.17;;
79759;SDS011;70512;42.122;24.732;2024-01-15T07:38:13;75.72;;;30.27;;
79759;SDS011;70512;42.122;24.732;2024-01-15T07:40:41;63.28;;;29.98;;
79759;SDS011;70512;42.122;24.732;2024-01-15T07:43:08;60.38;;;30.08;;
79759;SDS011;70512;42.122;24.732;2024-01-15T07:45:36;67.87;;;31.00;;
79759;SDS011;70512;42.122;24.732;2024-01-15T07:48:04;77.20;;;35.13;;
79759;SDS011;70512;42.122;24.732;2024-01-15T07:50:32;74.42;;;40.25;;
79759;SDS011;70512;42.122;24.732;2024-01-15T07:52:59;91.37;;;42.48;;
79759;SDS011;70512;42.122;24.732;2024-01-15T07:55:27;92.47;;;40.20;;
79759;SDS011;70512;42.122;24.732;2024-01-15T07:57:55;82.97;;;39.30;;
79759;SDS011;70512;42.122;24.732;2024-01-15T08:00:24;80.83;;;40.92;;
79759;SDS011;70512;42.122;24.732;2024-01-15T08:02:52;102.27;;;50.50;;
79759;SDS011;70512;42.122;24.732;2024-01-15T08:05:20;78.12;;;38.42;;
79759;SDS011;70512;42.122;24.732;2024-01-15T08:07:48;78.87;;;38.25;;
79759;SDS011;70512;42.122;24.732;2024-01-15T08:10:16;76.75;;;35.92;;
79759;SDS011;70512;42.122;24.732;2024-01-15T08:12:43;68.40;;;37.17;;
79759;SDS011;70512;42.122;24.732;2024-01-15T08:15:11;78.28;;;39.83;;
79759;SDS011;70512;42.122;24.732;2024-01-15T08:17:39;91.42;;;43.70;;
79759;SDS011;70512;42.122;24.732;2024-01-15T08:20:06;106.67;;;43.30;;
79759;SDS011;70512;42.122;24.732;2024-01-15T08:22:34;72.30;;;38.98;;
79759;SDS011;70512;42.122;24.732;2024-01-15T08:25:02;71.82;;;38.53;;
79759;SDS011;70512;42.122;24.732;2024-01-15T08:27:30;64.42;;;36.95;;
79759;SDS011;70512;42.122;24.732;2024-01-15T08:29:58;68.87;;;38.13;;
79759;SDS011;70512;42.122;24.732;2024-01-15T08:32:26;68.83;;;38.50;;
79759;SDS011;70512;42.122;24.732;2024-01-15T08:34:53;67.95;;;38.10;;
79759;SDS011;70512;42.122;24.732;2024-01-15T08:37:21;80.95;;;45.88;;
79759;SDS011;70512;42.122;24.732;2024-01-15T08:39:49;61.83;;;34.35;;
79759;SDS011;70512;42.122;24.732;2024-01-15T08:42:16;53.48;;;32.85;;
79759;SDS011;70512;42.122;24.732;2024-01-15T08:44:44;62.08;;;32.42;;
79759;SDS011;70512;42.122;24.732;2024-01-15T08:47:12;56.37;;;30.00;;
79759;SDS011;70512;42.122;24.732;2024-01-15T08:49:40;51.23;;;29.70;;
79759;SDS011;70512;42.122;24.732;2024-01-15T08:52:09;49.50;;;28.32;;
79759;SDS011;70512;42.122;24.732;2024-01-15T08:54:36;67.85;;;32.40;;
79759;SDS011;70512;42.122;24.732;2024-01-15T08:57:04;53.25;;;28.87;;
79759;SDS011;70512;42.122;24.732;2024-01-15T08:59:31;54.13;;;29.37;;
79759;SDS011;70512;42.122;24.732;2024-01-15T09:01:59;81.92;;;49.15;;
79759;SDS011;70512;42.122;24.732;2024-01-15T09:04:27;62.27;;;33.13;;
79759;SDS011;70512;42.122;24.732;2024-01-15T09:06:54;129.65;;;66.47;;
79759;SDS011;70512;42.122;24.732;2024-01-15T09:09:22;63.90;;;36.17;;
79759;SDS011;70512;42.122;24.732;2024-01-15T09:11:51;69.85;;;38.38;;
79759;SDS011;70512;42.122;24.732;2024-01-15T09:14:18;59.27;;;32.93;;
79759;SDS011;70512;42.122;24.732;2024-01-15T09:16:47;62.00;;;30.72;;
79759;SDS011;70512;42.122;24.732;2024-01-15T09:19:15;60.80;;;33.42;;
79759;SDS011;70512;42.122;24.732;2024-01-15T09:21:43;78.07;;;37.65;;
79759;SDS011;70512;42.122;24.732;2024-01-15T09:24:11;68.75;;;33.08;;
79759;SDS011;70512;42.122;24.732;2024-01-15T09:26:39;66.20;;;31.77;;
79759;SDS011;70512;42.122;24.732;2024-01-15T09:29:06;69.15;;;33.10;;
79759;SDS011;70512;42.122;24.732;2024-01-15T09:31:35;67.62;;;34.98;;
79759;SDS011;70512;42.122;24.732;2024-01-15T09:34:03;70.90;;;35.65;;
79759;SDS011;70512;42.122;24.732;2024-01-15T09:36:32;60.20;;;32.73;;
79759;SDS011;70512;42.122;24.732;2024-01-15T09:38:59;56.05;;;30.72;;
79759;SDS011;70512;42.122;24.732;2024-01-15T09:41:27;61.23;;;32.85;;
79759;SDS011;70512;42.122;24.732;2024-01-15T09:43:54;59.10;;;31.90;;
79759;SDS011;70512;42.122;24.732;2024-01-15T09:46:22;57.38;;;30.97;;
79759;SDS011;70512;42.122;24.732;2024-01-15T09:48:50;71.50;;;34.58;;
79759;SDS011;70512;42.122;24.732;2024-01-15T09:51:18;64.37;;;32.55;;
79759;SDS011;70512;42.122;24.732;2024-01-15T09:53:46;66.00;;;33.58;;
79759;SDS011;70512;42.122;24.732;2024-01-15T09:56:15;64.62;;;34.13;;
79759;SDS011;70512;42.122;24.732;2024-01-15T09:58:43;52.83;;;30.60;;
79759;SDS011;70512;42.122;24.732;2024-01-15T10:01:11;60.33;;;32.28;;
79759;SDS011;70512;42.122;24.732;2024-01-15T10:03:41;55.17;;;30.60;;
79759;SDS011;70512;42.122;24.732;2024-01-15T10:06:08;61.70;;;33.40;;
79759;SDS011;70512;42.122;24.732;2024-01-15T10:08:38;59.88;;;29.67;;
79759;SDS011;70512;42.122;24.732;2024-01-15T10:11:05;59.95;;;32.35;;
79759;SDS011;70512;42.122;24.732;2024-01-15T10:13:33;60.45;;;32.55;;
79759;SDS011;70512;42.122;24.732;2024-01-15T10:16:01;69.72;;;31.73;;
79759;SDS011;70512;42.122;24.732;2024-01-15T10:18:29;59.90;;;33.23;;
79759;SDS011;70512;42.122;24.732;2024-01-15T10:20:57;58.10;;;33.28;;
79759;SDS011;70512;42.122;24.732;2024-01-15T10:23:26;59.18;;;33.80;;
79759;SDS011;70512;42.122;24.732;2024-01-15T10:25:53;62.58;;;34.13;;
79759;SDS011;70512;42.122;24.732;2024-01-15T10:28:25;64.62;;;34.55;;
79759;SDS011;70512;42.122;24.732;2024-01-15T10:30:58;67.30;;;36.35;;
79759;SDS011;70512;42.122;24.732;2024-01-15T10:33:26;65.78;;;34.33;;
79759;SDS011;70512;42.122;24.732;2024-01-15T10:35:55;71.53;;;36.95;;
79759;SDS011;70512;42.122;24.732;2024-01-15T10:38:24;63.55;;;31.73;;
79759;SDS011;70512;42.122;24.732;2024-01-15T10:40:55;66.07;;;35.20;;
79759;SDS011;70512;42.122;24.732;2024-01-15T10:43:23;53.50;;;33.25;;
79759;SDS011;70512;42.122;24.732;2024-01-15T10:45:51;65.52;;;35.00;;
79759;SDS011;70512;42.122;24.732;2024-01-15T10:48:19;62.80;;;38.63;;
79759;SDS011;70512;42.122;24.732;2024-01-15T10:50:47;69.77;;;39.78;;
79759;SDS011;70512;42.122;24.732;2024-01-15T10:53:15;78.57;;;38.95;;
79759;SDS011;70512;42.122;24.732;2024-01-15T10:55:43;64.42;;;36.85;;
79759;SDS011;70512;42.122;24.732;2024-01-15T10:58:14;58.73;;;36.00;;
79759;SDS011;70512;42.122;24.732;2024-01-15T11:00:43;71.50;;;41.20;;
79759;SDS011;70512;42.122;24.732;2024-01-15T11:03:11;59.93;;;37.63;;
79759;SDS011;70512;42.122;24.732;2024-01-15T11:05:41;52.95;;;35.05;;
79759;SDS011;70512;42.122;24.732;2024-01-15T11:08:10;57.93;;;36.90;;
79759;SDS011;70512;42.122;24.732;2024-01-15T11:10:41;59.35;;;41.10;;
79759;SDS011;70512;42.122;24.732;2024-01-15T11:16:03;56.75;;;34.48;;
79759;SDS011;70512;42.122;24.732;2024-01-15T11:18:42;44.27;;;33.38;;
79759;SDS011;70512;42.122;24.732;2024-01-15T11:23:46;44.95;;;32.90;;
79759;SDS011;70512;42.122;24.732;2024-01-15T11:26:27;49.77;;;36.33;;
79759;SDS011;70512;42.122;24.732;2024-01-15T11:28:56;54.77;;;37.28;;
79759;SDS011;70512;42.122;24.732;2024-01-15T11:31:29;64.17;;;39.63;;
79759;SDS011;70512;42.122;24.732;2024-01-15T11:33:58;58.45;;;36.77;;
79759;SDS011;70512;42.122;24.732;2024-01-15T11:42:02;63.85;;;36.95;;
79759;SDS011;70512;42.122;24.732;2024-01-15T11:44:30;51.65;;;37.23;;
79759;SDS011;70512;42.122;24.732;2024-01-15T11:46:59;50.17;;;33.70;;
79759;SDS011;70512;42.122;24.732;2024-01-15T11:52:34;48.75;;;30.20;;
79759;SDS011;70512;42.122;24.732;2024-01-15T11:57:40;47.73;;;30.70;;
79759;SDS011;70512;42.122;24.732;2024-01-15T12:00:10;48.90;;;31.37;;
79759;SDS011;70512;42.122;24.732;2024-01-15T12:02:44;46.55;;;29.57;;
79759;SDS011;70512;42.122;24.732;2024-01-15T12:05:09;46.93;;;28.70;;
79759;SDS011;70512;42.122;24.732;2024-01-15T12:07:49;47.85;;;29.87;;
79759;SDS011;70512;42.122;24.732;2024-01-15T12:10:20;44.65;;;30.80;;
79759;SDS011;70512;42.122;24.732;2024-01-15T12:12:53;47.95;;;31.40;;
79759;SDS011;70512;42.122;24.732;2024-01-15T12:15:36;66.95;;;35.30;;
79759;SDS011;70512;42.122;24.732;2024-01-15T12:18:05;60.65;;;33.42;;
79759;SDS011;70512;42.122;24.732;2024-01-15T12:20:35;56.58;;;33.30;;
79759;SDS011;70512;42.122;24.732;2024-01-15T12:23:03;62.23;;;39.60;;
79759;SDS011;70512;42.122;24.732;2024-01-15T12:25:33;61.48;;;36.45;;
79759;SDS011;70512;42.122;24.732;2024-01-15T12:28:01;71.72;;;38.00;;
79759;SDS011;70512;42.122;24.732;2024-01-15T12:30:29;71.30;;;41.70;;
79759;SDS011;70512;42.122;24.732;2024-01-15T12:33:02;86.08;;;46.15;;
79759;SDS011;70512;42.122;24.732;2024-01-15T12:35:33;76.65;;;43.87;;
79759;SDS011;70512;42.122;24.732;2024-01-15T12:38:01;78.90;;;44.88;;
79759;SDS011;70512;42.122;24.732;2024-01-15T12:40:30;92.92;;;45.52;;
79759;SDS011;70512;42.122;24.732;2024-01-15T12:43:00;77.65;;;43.60;;
79759;SDS011;70512;42.122;24.732;2024-01-15T12:45:40;81.17;;;44.53;;
79759;SDS011;70512;42.122;24.732;2024-01-15T12:48:09;88.97;;;49.00;;
79759;SDS011;70512;42.122;24.732;2024-01-15T12:50:36;102.80;;;49.85;;
79759;SDS011;70512;42.122;24.732;2024-01-15T12:53:04;97.00;;;49.50;;
79759;SDS011;70512;42.122;24.732;2024-01-15T12:55:34;99.62;;;49.08;;
79759;SDS011;70512;42.122;24.732;2024-01-15T12:58:01;95.47;;;48.45;;
79759;SDS011;70512;42.122;24.732;2024-01-15T13:00:29;99.83;;;49.42;;
79759;SDS011;70512;42.122;24.732;2024-01-15T13:02:57;93.20;;;49.58;;
79759;SDS011;70512;42.122;24.732;2024-01-15T13:05:26;97.02;;;49.80;;
79759;SDS011;70512;42.122;24.732;2024-01-15T13:07:55;104.72;;;55.43;;
79759;SDS011;70512;42.122;24.732;2024-01-15T13:10:23;107.17;;;54.90;;
79759;SDS011;70512;42.122;24.732;2024-01-15T13:12:51;95.53;;;53.05;;
79759;SDS011;70512;42.122;24.732;2024-01-15T13:15:19;95.92;;;52.38;;
79759;SDS011;70512;42.122;24.732;2024-01-15T13:17:47;110.63;;;52.80;;
79759;SDS011;70512;42.122;24.732;2024-01-15T13:20:14;111.20;;;52.98;;
79759;SDS011;70512;42.122;24.732;2024-01-15T13:22:42;107.43;;;52.58;;
79759;SDS011;70512;42.122;24.732;2024-01-15T13:25:10;116.73;;;53.05;;
79759;SDS011;70512;42.122;24.732;2024-01-15T13:27:38;95.30;;;52.08;;
79759;SDS011;70512;42.122;24.732;2024-01-15T13:30:06;112.50;;;53.20;;
79759;SDS011;70512;42.122;24.732;2024-01-15T13:32:34;102.38;;;54.93;;
79759;SDS011;70512;42.122;24.732;2024-01-15T13:35:02;107.20;;;49.67;;
79759;SDS011;70512;42.122;24.732;2024-01-15T13:37:31;94.37;;;48.13;;
79759;SDS011;70512;42.122;24.732;2024-01-15T13:39:59;97.15;;;48.73;;
79759;SDS011;70512;42.122;24.732;2024-01-15T13:42:30;102.12;;;51.98;;
79759;SDS011;70512;42.122;24.732;2024-01-15T13:44:57;108.70;;;49.98;;
79759;SDS011;70512;42.122;24.732;2024-01-15T13:47:25;96.25;;;47.85;;
79759;SDS011;70512;42.122;24.732;2024-01-15T13:49:53;87.30;;;46.28;;
79759;SDS011;70512;42.122;24.732;2024-01-15T13:52:21;103.05;;;50.38;;
79759;SDS011;70512;42.122;24.732;2024-01-15T13:54:49;103.75;;;49.75;;
79759;SDS011;70512;42.122;24.732;2024-01-15T13:57:17;99.00;;;45.15;;
79759;SDS011;70512;42.122;24.732;2024-01-15T13:59:45;97.25;;;47.93;;
79759;SDS011;70512;42.122;24.732;2024-01-15T14:02:13;101.90;;;50.40;;
79759;SDS011;70512;42.122;24.732;2024-01-15T14:04:42;105.12;;;51.55;;
79759;SDS011;70512;42.122;24.732;2024-01-15T14:07:09;104.15;;;48.75;;
79759;SDS011;70512;42.122;24.732;2024-01-15T14:09:37;88.27;;;44.40;;
79759;SDS011;70512;42.122;24.732;2024-01-15T14:12:05;92.02;;;46.05;;
79759;SDS011;70512;42.122;24.732;2024-01-15T14:14:33;90.17;;;47.70;;
79759;SDS011;70512;42.122;24.732;2024-01-15T14:17:01;109.07;;;52.48;;
79759;SDS011;70512;42.122;24.732;2024-01-15T14:19:29;88.25;;;44.75;;
79759;SDS011;70512;42.122;24.732;2024-01-15T14:21:57;85.70;;;44.20;;
79759;SDS011;70512;42.122;24.732;2024-01-15T14:24:25;95.17;;;46.10;;
79759;SDS011;70512;42.122;24.732;2024-01-15T14:26:52;91.02;;;44.30;;
79759;SDS011;70512;42.122;24.732;2024-01-15T14:29:24;93.50;;;43.92;;
79759;SDS011;70512;42.122;24.732;2024-01-15T14:31:52;95.65;;;47.08;;